sensor_id;sensor_type;location;lat;lon;timestamp;pressure;altitude;pressure_sealevel;temperature;humidity
4398;BME280;2213;49.720;7.296;2022-07-05T00:01:25;98520.41;;;18.28;86.36
4398;BME280;2213;49.720;7.296;2022-07-05T00:03:55;98514.75;;;18.24;86.81
4398;BME280;2213;49.720;7.296;2022-07-05T00:06:25;98512.75;;;18.20;86.92
4398;BME280;2213;49.720;7.296;2022-07-05T00:08:56;98524.03;;;18.15;87.38
4398;BME280;2213;49.720;7.296;2022-07-05T00:11:26;98525.34;;;18.06;88.23
4398;BME280;2213;49.720;7.296;2022-07-05T00:13:59;98522.72;;;18.06;88.39
4398;BME280;2213;49.720;7.296;2022-07-05T00:16:29;98516.38;;;18.07;88.15
4398;BME280;2213;49.720;7.296;2022-07-05T00:19:00;98518.00;;;18.08;88.07
4398;BME280;2213;49.720;7.296;2022-07-05T00:21:28;98516.59;;;18.05;88.07
4398;BME280;2213;49.720;7.296;2022-07-05T00:23:58;98521.41;;;17.97;88.71
4398;BME280;2213;49.720;7.296;2022-07-05T00:26:29;98520.22;;;17.93;89.37
4398;BME280;2213;49.720;7.296;2022-07-05T00:29:00;98509.28;;;17.89;89.06
4398;BME280;2213;49.720;7.296;2022-07-05T00:31:31;98517.44;;;17.88;89.18
4398;BME280;2213;49.720;7.296;2022-07-05T00:34:02;98517.31;;;17.83;89.37
4398;BME280;2213;49.720;7.296;2022-07-05T00:36:32;98519.59;;;17.79;89.59
4398;BME280;2213;49.720;7.296;2022-07-05T00:39:02;98511.28;;;17.76;89.94
4398;BME280;2213;49.720;7.296;2022-07-05T00:41:32;98516.78;;;17.74;89.87
4398;BME280;2213;49.720;7.296;2022-07-05T00:44:06;98511.94;;;17.71;89.97
4398;BME280;2213;49.720;7.296;2022-07-05T00:46:37;98512.16;;;17.70;90.34
4398;BME280;2213;49.720;7.296;2022-07-05T00:49:07;98510.19;;;17.65;90.90
4398;BME280;2213;49.720;7.296;2022-07-05T00:51:38;98507.59;;;17.58;91.13
4398;BME280;2213;49.720;7.296;2022-07-05T00:54:28;98511.09;;;17.52;91.53
4398;BME280;2213;49.720;7.296;2022-07-05T00:56:59;98505.66;;;17.47;92.17
4398;BME280;2213;49.720;7.296;2022-07-05T00:59:31;98507.94;;;17.44;92.12
4398;BME280;2213;49.720;7.296;2022-07-05T01:02:00;98509.63;;;17.38;92.38
4398;BME280;2213;49.720;7.296;2022-07-05T01:04:30;98509.00;;;17.36;92.54
4398;BME280;2213;49.720;7.296;2022-07-05T01:07:00;98512.09;;;17.33;92.81
4398;BME280;2213;49.720;7.296;2022-07-05T01:09:34;98511.16;;;17.28;93.04
4398;BME280;2213;49.720;7.296;2022-07-05T01:12:05;98512.75;;;17.29;93.04
4398;BME280;2213;49.720;7.296;2022-07-05T01:14:37;98519.72;;;17.23;93.39
4398;BME280;2213;49.720;7.296;2022-07-05T01:17:06;98518.53;;;17.19;94.03
4398;BME280;2213;49.720;7.296;2022-07-05T01:19:38;98512.69;;;17.17;93.87
4398;BME280;2213;49.720;7.296;2022-07-05T01:22:16;98517.41;;;17.08;94.21
4398;BME280;2213;49.720;7.296;2022-07-05T01:24:50;98515.81;;;17.07;94.69
4398;BME280;2213;49.720;7.296;2022-07-05T01:27:22;98512.19;;;17.02;94.71
4398;BME280;2213;49.720;7.296;2022-07-05T01:29:52;98518.50;;;17.01;95.00
4398;BME280;2213;49.720;7.296;2022-07-05T01:32:22;98509.16;;;16.98;94.96
4398;BME280;2213;49.720;7.296;2022-07-05T01:34:53;98514.69;;;16.97;94.99
4398;BME280;2213;49.720;7.296;2022-07-05T01:37:23;98520.38;;;16.94;94.76
4398;BME280;2213;49.720;7.296;2022-07-05T01:39:54;98520.81;;;16.91;95.04
4398;BME280;2213;49.720;7.296;2022-07-05T01:42:24;98515.16;;;16.87;95.41
4398;BME280;2213;49.720;7.296;2022-07-05T01:44:55;98524.16;;;16.80;95.92
4398;BME280;2213;49.720;7.296;2022-07-05T01:47:25;98523.41;;;16.73;96.59
4398;BME280;2213;49.720;7.296;2022-07-05T01:49:57;98516.06;;;16.75;96.66
4398;BME280;2213;49.720;7.296;2022-07-05T01:52:31;98523.22;;;16.68;96.85
4398;BME280;2213;49.720;7.296;2022-07-05T01:55:06;98522.25;;;16.62;97.29
4398;BME280;2213;49.720;7.296;2022-07-05T01:57:37;98524.72;;;16.57;97.68
4398;BME280;2213;49.720;7.296;2022-07-05T02:00:12;98524.09;;;16.55;97.56
4398;BME280;2213;49.720;7.296;2022-07-05T02:02:46;98527.38;;;16.50;97.76
4398;BME280;2213;49.720;7.296;2022-07-05T02:05:16;98526.19;;;16.46;98.22
4398;BME280;2213;49.720;7.296;2022-07-05T02:07:47;98524.34;;;16.47;97.98
4398;BME280;2213;49.720;7.296;2022-07-05T02:10:18;98525.78;;;16.43;98.54
4398;BME280;2213;49.720;7.296;2022-07-05T02:12:48;98524.00;;;16.37;99.09
4398;BME280;2213;49.720;7.296;2022-07-05T02:15:18;98524.03;;;16.30;99.80
4398;BME280;2213;49.720;7.296;2022-07-05T02:17:48;98529.09;;;16.32;99.89
4398;BME280;2213;49.720;7.296;2022-07-05T02:20:18;98524.47;;;16.27;99.63
4398;BME280;2213;49.720;7.296;2022-07-05T02:22:47;98522.66;;;16.21;100.00
4398;BME280;2213;49.720;7.296;2022-07-05T02:25:17;98522.25;;;16.24;100.00
4398;BME280;2213;49.720;7.296;2022-07-05T02:27:47;98520.03;;;16.21;100.00
4398;BME280;2213;49.720;7.296;2022-07-05T02:30:17;98514.75;;;16.21;100.00
4398;BME280;2213;49.720;7.296;2022-07-05T02:32:46;98523.69;;;16.20;99.91
4398;BME280;2213;49.720;7.296;2022-07-05T02:35:16;98516.78;;;16.19;100.00
4398;BME280;2213;49.720;7.296;2022-07-05T02:37:46;98519.25;;;16.14;100.00
4398;BME280;2213;49.720;7.296;2022-07-05T02:40:17;98523.34;;;16.10;100.00
4398;BME280;2213;49.720;7.296;2022-07-05T02:42:48;98519.66;;;16.11;100.00
4398;BME280;2213;49.720;7.296;2022-07-05T02:45:17;98518.47;;;16.07;100.00
4398;BME280;2213;49.720;7.296;2022-07-05T02:47:47;98528.22;;;16.06;100.00
4398;BME280;2213;49.720;7.296;2022-07-05T02:50:16;98526.38;;;16.07;100.00
4398;BME280;2213;49.720;7.296;2022-07-05T02:52:47;98520.53;;;15.98;100.00
4398;BME280;2213;49.720;7.296;2022-07-05T02:55:18;98528.69;;;15.90;100.00
4398;BME280;2213;49.720;7.296;2022-07-05T02:57:49;98533.53;;;15.93;100.00
4398;BME280;2213;49.720;7.296;2022-07-05T03:00:19;98533.38;;;15.88;100.00
4398;BME280;2213;49.720;7.296;2022-07-05T03:02:48;98529.72;;;15.89;100.00
4398;BME280;2213;49.720;7.296;2022-07-05T03:05:17;98527.28;;;15.88;100.00
4398;BME280;2213;49.720;7.296;2022-07-05T03:07:48;98539.25;;;15.84;100.00
4398;BME280;2213;49.720;7.296;2022-07-05T03:10:19;98544.56;;;15.77;100.00
4398;BME280;2213;49.720;7.296;2022-07-05T03:12:49;98535.25;;;15.75;100.00
4398;BME280;2213;49.720;7.296;2022-07-05T03:15:19;98542.53;;;15.73;100.00
4398;BME280;2213;49.720;7.296;2022-07-05T03:17:49;98544.59;;;15.71;100.00
4398;BME280;2213;49.720;7.296;2022-07-05T03:20:19;98541.34;;;15.69;100.00
4398;BME280;2213;49.720;7.296;2022-07-05T03:22:49;98540.75;;;15.67;100.00
4398;BME280;2213;49.720;7.296;2022-07-05T03:25:21;98544.38;;;15.66;100.00
4398;BME280;2213;49.720;7.296;2022-07-05T03:27:50;98542.97;;;15.63;100.00
4398;BME280;2213;49.720;7.296;2022-07-05T03:30:20;98537.53;;;15.58;100.00
4398;BME280;2213;49.720;7.296;2022-07-05T03:32:50;98542.00;;;15.57;100.00
4398;BME280;2213;49.720;7.296;2022-07-05T03:35:19;98531.25;;;15.52;100.00
4398;BME280;2213;49.720;7.296;2022-07-05T03:37:50;98539.56;;;15.49;100.00
4398;BME280;2213;49.720;7.296;2022-07-05T03:40:23;98537.31;;;15.53;100.00
4398;BME280;2213;49.720;7.296;2022-07-05T03:42:52;98537.31;;;15.46;100.00
4398;BME280;2213;49.720;7.296;2022-07-05T03:45:21;98545.41;;;15.38;100.00
4398;BME280;2213;49.720;7.296;2022-07-05T03:47:52;98538.13;;;15.40;100.00
4398;BME280;2213;49.720;7.296;2022-07-05T03:50:21;98540.38;;;15.37;100.00
4398;BME280;2213;49.720;7.296;2022-07-05T03:52:51;98543.00;;;15.37;100.00
4398;BME280;2213;49.720;7.296;2022-07-05T03:55:24;98541.19;;;15.37;100.00
4398;BME280;2213;49.720;7.296;2022-07-05T03:57:54;98544.22;;;15.41;100.00
4398;BME280;2213;49.720;7.296;2022-07-05T04:00:24;98548.69;;;15.34;100.00
4398;BME280;2213;49.720;7.296;2022-07-05T04:02:55;98543.81;;;15.31;100.00
4398;BME280;2213;49.720;7.296;2022-07-05T04:05:25;98548.06;;;15.32;100.00
4398;BME280;2213;49.720;7.296;2022-07-05T04:07:56;98555.16;;;15.31;100.00
4398;BME280;2213;49.720;7.296;2022-07-05T04:10:28;98557.19;;;15.29;100.00
4398;BME280;2213;49.720;7.296;2022-07-05T04:12:58;98553.94;;;15.27;100.00
4398;BME280;2213;49.720;7.296;2022-07-05T04:15:27;98552.94;;;15.28;100.00
4398;BME280;2213;49.720;7.296;2022-07-05T04:17:57;98555.56;;;15.28;100.00
4398;BME280;2213;49.720;7.296;2022-07-05T04:20:29;98545.03;;;15.28;100.00
4398;BME280;2213;49.720;7.296;2022-07-05T04:22:58;98554.56;;;15.29;100.00
4398;BME280;2213;49.720;7.296;2022-07-05T04:25:29;98567.75;;;15.29;100.00
4398;BME280;2213;49.720;7.296;2022-07-05T04:27:59;98566.13;;;15.28;100.00
4398;BME280;2213;49.720;7.296;2022-07-05T04:30:29;98566.75;;;15.30;100.00
4398;BME280;2213;49.720;7.296;2022-07-05T04:32:58;98564.88;;;15.31;100.00
4398;BME280;2213;49.720;7.296;2022-07-05T04:35:29;98569.38;;;15.30;100.00
4398;BME280;2213;49.720;7.296;2022-07-05T04:37:59;98559.22;;;15.34;100.00
4398;BME280;2213;49.720;7.296;2022-07-05T04:40:30;98573.81;;;15.36;100.00
4398;BME280;2213;49.720;7.296;2022-07-05T04:42:59;98563.28;;;15.36;100.00
4398;BME280;2213;49.720;7.296;2022-07-05T04:45:30;98562.88;;;15.39;100.00
4398;BME280;2213;49.720;7.296;2022-07-05T04:48:00;98573.00;;;15.42;100.00
4398;BME280;2213;49.720;7.296;2022-07-05T04:50:31;98574.63;;;15.43;100.00
4398;BME280;2213;49.720;7.296;2022-07-05T04:53:01;98568.34;;;15.44;100.00
4398;BME280;2213;49.720;7.296;2022-07-05T04:55:33;98566.94;;;15.48;100.00
4398;BME280;2213;49.720;7.296;2022-07-05T04:58:03;98572.19;;;15.48;100.00
4398;BME280;2213;49.720;7.296;2022-07-05T05:00:34;98572.59;;;15.52;100.00
4398;BME280;2213;49.720;7.296;2022-07-05T05:03:04;98567.94;;;15.54;100.00
4398;BME280;2213;49.720;7.296;2022-07-05T05:05:33;98574.63;;;15.56;100.00
4398;BME280;2213;49.720;7.296;2022-07-05T05:08:03;98567.31;;;15.58;100.00
4398;BME280;2213;49.720;7.296;2022-07-05T05:10:36;98569.56;;;15.62;100.00
4398;BME280;2213;49.720;7.296;2022-07-05T05:13:06;98569.97;;;15.65;100.00
4398;BME280;2213;49.720;7.296;2022-07-05T05:15:36;98575.00;;;15.67;100.00
4398;BME280;2213;49.720;7.296;2022-07-05T05:18:08;98570.38;;;15.69;100.00
4398;BME280;2213;49.720;7.296;2022-07-05T05:20:39;98573.16;;;15.74;100.00
4398;BME280;2213;49.720;7.296;2022-07-05T05:23:09;98573.16;;;15.74;100.00
4398;BME280;2213;49.720;7.296;2022-07-05T05:25:41;98573.78;;;15.76;100.00
4398;BME280;2213;49.720;7.296;2022-07-05T05:28:11;98584.50;;;15.81;100.00
4398;BME280;2213;49.720;7.296;2022-07-05T05:30:42;98581.28;;;15.79;100.00
4398;BME280;2213;49.720;7.296;2022-07-05T05:33:12;98583.09;;;15.85;100.00
4398;BME280;2213;49.720;7.296;2022-07-05T05:35:42;98592.81;;;15.91;100.00
4398;BME280;2213;49.720;7.296;2022-07-05T05:38:13;98588.75;;;15.95;100.00
4398;BME280;2213;49.720;7.296;2022-07-05T05:40:45;98588.94;;;16.00;100.00
4398;BME280;2213;49.720;7.296;2022-07-05T05:43:15;98588.09;;;16.06;100.00
4398;BME280;2213;49.720;7.296;2022-07-05T05:45:45;98593.53;;;16.11;100.00
4398;BME280;2213;49.720;7.296;2022-07-05T05:48:15;98593.53;;;16.18;100.00
4398;BME280;2213;49.720;7.296;2022-07-05T05:50:46;98591.88;;;16.23;100.00
4398;BME280;2213;49.720;7.296;2022-07-05T05:53:15;98600.78;;;16.29;100.00
4398;BME280;2213;49.720;7.296;2022-07-05T05:55:46;98593.06;;;16.34;100.00
4398;BME280;2213;49.720;7.296;2022-07-05T05:58:17;98596.69;;;16.39;100.00
4398;BME280;2213;49.720;7.296;2022-07-05T06:00:49;98597.88;;;16.43;100.00
4398;BME280;2213;49.720;7.296;2022-07-05T06:03:22;98591.75;;;16.49;100.00
4398;BME280;2213;49.720;7.296;2022-07-05T06:05:53;98602.50;;;16.54;100.00
4398;BME280;2213;49.720;7.296;2022-07-05T06:08:23;98594.34;;;16.63;100.00
4398;BME280;2213;49.720;7.296;2022-07-05T06:10:53;98600.63;;;16.68;100.00
4398;BME280;2213;49.720;7.296;2022-07-05T06:13:31;98597.38;;;16.73;100.00
4398;BME280;2213;49.720;7.296;2022-07-05T06:16:01;98594.88;;;16.78;100.00
4398;BME280;2213;49.720;7.296;2022-07-05T06:18:31;98598.53;;;16.83;100.00
4398;BME280;2213;49.720;7.296;2022-07-05T06:21:02;98603.97;;;16.88;100.00
4398;BME280;2213;49.720;7.296;2022-07-05T06:23:32;98601.28;;;16.95;100.00
4398;BME280;2213;49.720;7.296;2022-07-05T06:26:04;98603.84;;;17.01;100.00
4398;BME280;2213;49.720;7.296;2022-07-05T06:28:34;98604.03;;;17.06;100.00
4398;BME280;2213;49.720;7.296;2022-07-05T06:31:04;98608.47;;;17.13;100.00
4398;BME280;2213;49.720;7.296;2022-07-05T06:33:35;98605.75;;;17.19;100.00
4398;BME280;2213;49.720;7.296;2022-07-05T06:36:06;98600.66;;;17.24;100.00
4398;BME280;2213;49.720;7.296;2022-07-05T06:38:36;98604.06;;;17.31;100.00
4398;BME280;2213;49.720;7.296;2022-07-05T06:41:08;98600.53;;;17.37;100.00
4398;BME280;2213;49.720;7.296;2022-07-05T06:43:38;98600.69;;;17.42;100.00
4398;BME280;2213;49.720;7.296;2022-07-05T06:46:08;98604.06;;;17.49;100.00
4398;BME280;2213;49.720;7.296;2022-07-05T06:48:38;98606.09;;;17.54;100.00
4398;BME280;2213;49.720;7.296;2022-07-05T06:51:07;98595.47;;;17.60;100.00
4398;BME280;2213;49.720;7.296;2022-07-05T06:53:37;98598.84;;;17.68;99.67
4398;BME280;2213;49.720;7.296;2022-07-05T06:56:07;98604.09;;;17.74;98.72
4398;BME280;2213;49.720;7.296;2022-07-05T06:58:38;98602.41;;;17.80;98.08
4398;BME280;2213;49.720;7.296;2022-07-05T07:01:09;98602.09;;;17.88;97.79
4398;BME280;2213;49.720;7.296;2022-07-05T07:03:48;98598.38;;;17.95;96.85
4398;BME280;2213;49.720;7.296;2022-07-05T07:06:39;98603.13;;;18.05;96.14
4398;BME280;2213;49.720;7.296;2022-07-05T07:09:10;98602.28;;;18.11;95.41
4398;BME280;2213;49.720;7.296;2022-07-05T07:11:50;98604.59;;;18.19;94.53
4398;BME280;2213;49.720;7.296;2022-07-05T07:14:21;98601.66;;;18.27;94.30
4398;BME280;2213;49.720;7.296;2022-07-05T07:16:50;98599.53;;;18.36;93.84
4398;BME280;2213;49.720;7.296;2022-07-05T07:19:21;98597.63;;;18.43;93.45
4398;BME280;2213;49.720;7.296;2022-07-05T07:21:51;98597.31;;;18.51;91.71
4398;BME280;2213;49.720;7.296;2022-07-05T07:24:22;98600.69;;;18.58;90.96
4398;BME280;2213;49.720;7.296;2022-07-05T07:26:55;98603.84;;;18.67;90.73
4398;BME280;2213;49.720;7.296;2022-07-05T07:29:38;98596.97;;;18.77;89.92
4398;BME280;2213;49.720;7.296;2022-07-05T07:32:09;98601.72;;;18.87;89.81
4398;BME280;2213;49.720;7.296;2022-07-05T07:34:38;98598.75;;;18.95;89.34
4398;BME280;2213;49.720;7.296;2022-07-05T07:37:07;98605.53;;;19.02;88.54
4398;BME280;2213;49.720;7.296;2022-07-05T07:39:41;98596.72;;;19.08;85.65
4398;BME280;2213;49.720;7.296;2022-07-05T07:42:12;98598.78;;;19.18;85.49
4398;BME280;2213;49.720;7.296;2022-07-05T07:44:42;98592.56;;;19.24;85.34
4398;BME280;2213;49.720;7.296;2022-07-05T07:47:12;98595.47;;;19.34;85.45
4398;BME280;2213;49.720;7.296;2022-07-05T07:49:42;98598.25;;;19.39;84.87
4398;BME280;2213;49.720;7.296;2022-07-05T07:52:14;98599.53;;;19.48;82.86
4398;BME280;2213;49.720;7.296;2022-07-05T07:54:43;98595.94;;;19.54;81.54
4398;BME280;2213;49.720;7.296;2022-07-05T07:57:15;98595.75;;;19.68;76.34
4398;BME280;2213;49.720;7.296;2022-07-05T07:59:46;98600.81;;;19.81;74.05
4398;BME280;2213;49.720;7.296;2022-07-05T08:02:17;98602.06;;;19.90;73.15
4398;BME280;2213;49.720;7.296;2022-07-05T08:04:49;98604.38;;;19.98;71.40
4398;BME280;2213;49.720;7.296;2022-07-05T08:07:18;98610.34;;;20.05;65.17
4398;BME280;2213;49.720;7.296;2022-07-05T08:09:48;98603.28;;;20.10;59.58
4398;BME280;2213;49.720;7.296;2022-07-05T08:12:21;98601.56;;;20.16;59.17
4398;BME280;2213;49.720;7.296;2022-07-05T08:14:50;98600.38;;;20.24;59.42
4398;BME280;2213;49.720;7.296;2022-07-05T08:17:20;98610.19;;;20.35;58.73
4398;BME280;2213;49.720;7.296;2022-07-05T08:19:50;98608.47;;;20.40;59.45
4398;BME280;2213;49.720;7.296;2022-07-05T08:22:37;98601.59;;;20.44;59.32
4398;BME280;2213;49.720;7.296;2022-07-05T08:25:06;98603.00;;;20.47;57.61
4398;BME280;2213;49.720;7.296;2022-07-05T08:27:38;98604.22;;;20.56;57.28
4398;BME280;2213;49.720;7.296;2022-07-05T08:30:14;98601.91;;;20.59;56.52
4398;BME280;2213;49.720;7.296;2022-07-05T08:32:45;98597.72;;;20.64;56.20
4398;BME280;2213;49.720;7.296;2022-07-05T08:35:16;98598.88;;;20.68;55.54
4398;BME280;2213;49.720;7.296;2022-07-05T08:37:47;98600.00;;;20.72;55.63
4398;BME280;2213;49.720;7.296;2022-07-05T08:40:22;98608.06;;;20.77;56.45
4398;BME280;2213;49.720;7.296;2022-07-05T08:42:58;98601.78;;;20.83;55.48
4398;BME280;2213;49.720;7.296;2022-07-05T08:45:31;98593.69;;;20.89;54.60
4398;BME280;2213;49.720;7.296;2022-07-05T08:48:03;98588.22;;;20.96;54.49
4398;BME280;2213;49.720;7.296;2022-07-05T08:50:37;98604.25;;;21.01;54.82
4398;BME280;2213;49.720;7.296;2022-07-05T08:53:07;98593.69;;;21.06;55.50
4398;BME280;2213;49.720;7.296;2022-07-05T08:55:36;98593.81;;;21.11;55.81
4398;BME280;2213;49.720;7.296;2022-07-05T08:58:07;98599.22;;;21.16;55.51
4398;BME280;2213;49.720;7.296;2022-07-05T09:00:37;98593.63;;;21.18;54.30
4398;BME280;2213;49.720;7.296;2022-07-05T09:03:08;98596.13;;;21.24;53.30
4398;BME280;2213;49.720;7.296;2022-07-05T09:05:43;98590.41;;;21.32;52.87
4398;BME280;2213;49.720;7.296;2022-07-05T09:08:15;98594.22;;;21.36;52.54
4398;BME280;2213;49.720;7.296;2022-07-05T09:10:46;98582.84;;;21.41;53.32
4398;BME280;2213;49.720;7.296;2022-07-05T09:13:18;98577.84;;;21.44;53.16
4398;BME280;2213;49.720;7.296;2022-07-05T09:15:48;98578.16;;;21.48;53.54
4398;BME280;2213;49.720;7.296;2022-07-05T09:18:41;98579.84;;;21.54;52.05
4398;BME280;2213;49.720;7.296;2022-07-05T09:21:15;98577.00;;;21.61;52.10
4398;BME280;2213;49.720;7.296;2022-07-05T09:23:56;98580.53;;;21.66;52.15
4398;BME280;2213;49.720;7.296;2022-07-05T09:26:32;98573.94;;;21.69;51.21
4398;BME280;2213;49.720;7.296;2022-07-05T09:29:06;98592.09;;;21.72;51.10
4398;BME280;2213;49.720;7.296;2022-07-05T09:31:55;98581.97;;;21.74;51.14
4398;BME280;2213;49.720;7.296;2022-07-05T09:34:28;98582.56;;;21.76;51.92
4398;BME280;2213;49.720;7.296;2022-07-05T09:37:00;98585.53;;;21.79;52.01
4398;BME280;2213;49.720;7.296;2022-07-05T09:39:39;98581.06;;;21.85;52.31
4398;BME280;2213;49.720;7.296;2022-07-05T09:42:15;98583.25;;;21.88;51.69
4398;BME280;2213;49.720;7.296;2022-07-05T09:44:51;98586.81;;;21.93;52.26
4398;BME280;2213;49.720;7.296;2022-07-05T09:47:23;98582.28;;;21.94;49.19
4398;BME280;2213;49.720;7.296;2022-07-05T09:49:56;98585.22;;;21.92;50.59
4398;BME280;2213;49.720;7.296;2022-07-05T09:52:40;98590.34;;;21.99;50.23
4398;BME280;2213;49.720;7.296;2022-07-05T09:55:13;98584.28;;;22.03;49.19
4398;BME280;2213;49.720;7.296;2022-07-05T09:57:46;98588.03;;;22.07;49.89
4398;BME280;2213;49.720;7.296;2022-07-05T10:00:19;98581.19;;;22.12;50.14
4398;BME280;2213;49.720;7.296;2022-07-05T10:02:51;98583.59;;;22.13;49.90
4398;BME280;2213;49.720;7.296;2022-07-05T10:05:22;98582.06;;;22.17;49.21
4398;BME280;2213;49.720;7.296;2022-07-05T10:07:55;98592.75;;;22.22;48.32
4398;BME280;2213;49.720;7.296;2022-07-05T10:10:29;98583.19;;;22.21;48.07
4398;BME280;2213;49.720;7.296;2022-07-05T10:13:00;98586.94;;;22.25;47.93
4398;BME280;2213;49.720;7.296;2022-07-05T10:15:35;98569.41;;;22.29;47.85
4398;BME280;2213;49.720;7.296;2022-07-05T10:18:09;98587.06;;;22.35;48.13
4398;BME280;2213;49.720;7.296;2022-07-05T10:20:43;98580.16;;;22.39;48.99
4398;BME280;2213;49.720;7.296;2022-07-05T10:23:15;98573.56;;;22.42;49.38
4398;BME280;2213;49.720;7.296;2022-07-05T10:25:47;98571.97;;;22.46;50.56
4398;BME280;2213;49.720;7.296;2022-07-05T10:28:18;98577.59;;;22.49;51.62
4398;BME280;2213;49.720;7.296;2022-07-05T10:30:50;98587.72;;;22.47;49.03
4398;BME280;2213;49.720;7.296;2022-07-05T10:33:20;98585.06;;;22.47;48.46
4398;BME280;2213;49.720;7.296;2022-07-05T10:35:55;98594.69;;;22.48;48.95
4398;BME280;2213;49.720;7.296;2022-07-05T10:38:26;98582.47;;;22.52;49.26
4398;BME280;2213;49.720;7.296;2022-07-05T10:41:02;98584.63;;;22.55;48.29
4398;BME280;2213;49.720;7.296;2022-07-05T10:43:33;98591.03;;;22.59;47.39
4398;BME280;2213;49.720;7.296;2022-07-05T10:46:05;98583.63;;;22.62;46.95
4398;BME280;2213;49.720;7.296;2022-07-05T10:48:35;98577.78;;;22.65;46.57
4398;BME280;2213;49.720;7.296;2022-07-05T10:51:16;98574.13;;;22.71;46.98
4398;BME280;2213;49.720;7.296;2022-07-05T10:54:03;98565.16;;;22.77;47.18
4398;BME280;2213;49.720;7.296;2022-07-05T10:56:33;98567.84;;;22.82;47.28
4398;BME280;2213;49.720;7.296;2022-07-05T10:59:10;98568.44;;;22.89;47.53
4398;BME280;2213;49.720;7.296;2022-07-05T11:01:42;98571.16;;;22.94;47.11
4398;BME280;2213;49.720;7.296;2022-07-05T11:04:37;98560.78;;;22.97;47.38
4398;BME280;2213;49.720;7.296;2022-07-05T11:07:08;98577.09;;;23.01;47.00
4398;BME280;2213;49.720;7.296;2022-07-05T11:09:37;98563.50;;;23.02;47.00
4398;BME280;2213;49.720;7.296;2022-07-05T11:12:36;98578.47;;;23.08;47.42
4398;BME280;2213;49.720;7.296;2022-07-05T11:15:09;98562.25;;;23.15;47.25
4398;BME280;2213;49.720;7.296;2022-07-05T11:17:42;98559.94;;;23.24;47.44
4398;BME280;2213;49.720;7.296;2022-07-05T11:20:30;98555.47;;;23.34;46.93
4398;BME280;2213;49.720;7.296;2022-07-05T11:23:09;98568.88;;;23.39;46.70
4398;BME280;2213;49.720;7.296;2022-07-05T11:25:44;98563.56;;;23.44;46.52
4398;BME280;2213;49.720;7.296;2022-07-05T11:28:20;98557.72;;;23.47;46.00
4398;BME280;2213;49.720;7.296;2022-07-05T11:30:56;98552.94;;;23.49;46.67
4398;BME280;2213;49.720;7.296;2022-07-05T11:33:40;98545.50;;;23.57;46.91
4398;BME280;2213;49.720;7.296;2022-07-05T11:36:24;98545.78;;;23.60;46.82
4398;BME280;2213;49.720;7.296;2022-07-05T11:39:12;98541.28;;;23.66;45.29
4398;BME280;2213;49.720;7.296;2022-07-05T11:41:47;98553.06;;;23.70;45.15
4398;BME280;2213;49.720;7.296;2022-07-05T11:44:17;98543.97;;;23.71;45.74
4398;BME280;2213;49.720;7.296;2022-07-05T11:46:46;98546.66;;;23.76;46.22
4398;BME280;2213;49.720;7.296;2022-07-05T11:49:22;98541.09;;;23.82;46.55
4398;BME280;2213;49.720;7.296;2022-07-05T11:51:57;98545.38;;;23.88;46.26
4398;BME280;2213;49.720;7.296;2022-07-05T11:54:30;98534.72;;;23.93;45.41
4398;BME280;2213;49.720;7.296;2022-07-05T11:57:00;98535.53;;;23.94;44.06
4398;BME280;2213;49.720;7.296;2022-07-05T11:59:30;98535.53;;;23.99;44.45
4398;BME280;2213;49.720;7.296;2022-07-05T12:02:06;98533.97;;;24.03;44.25
4398;BME280;2213;49.720;7.296;2022-07-05T12:04:38;98519.81;;;24.08;44.20
4398;BME280;2213;49.720;7.296;2022-07-05T12:07:08;98522.03;;;24.16;44.58
4398;BME280;2213;49.720;7.296;2022-07-05T12:09:38;98518.53;;;24.20;44.21
4398;BME280;2213;49.720;7.296;2022-07-05T12:12:25;98523.63;;;24.17;42.92
4398;BME280;2213;49.720;7.296;2022-07-05T12:15:17;98527.38;;;24.16;42.98
4398;BME280;2213;49.720;7.296;2022-07-05T12:17:50;98512.63;;;24.13;42.55
4398;BME280;2213;49.720;7.296;2022-07-05T12:20:24;98494.47;;;24.20;43.16
4398;BME280;2213;49.720;7.296;2022-07-05T12:22:54;98504.94;;;24.27;42.26
4398;BME280;2213;49.720;7.296;2022-07-05T12:25:26;98505.72;;;24.27;42.59
4398;BME280;2213;49.720;7.296;2022-07-05T12:27:58;98515.63;;;24.27;42.92
4398;BME280;2213;49.720;7.296;2022-07-05T12:30:30;98517.22;;;24.28;42.62
4398;BME280;2213;49.720;7.296;2022-07-05T12:33:02;98511.63;;;24.29;43.33
4398;BME280;2213;49.720;7.296;2022-07-05T12:35:36;98509.47;;;24.26;42.79
4398;BME280;2213;49.720;7.296;2022-07-05T12:38:10;98511.91;;;24.33;43.54
4398;BME280;2213;49.720;7.296;2022-07-05T12:40:43;98496.13;;;24.41;44.10
4398;BME280;2213;49.720;7.296;2022-07-05T12:43:15;98498.28;;;24.49;44.03
4398;BME280;2213;49.720;7.296;2022-07-05T12:46:00;98493.50;;;24.57;43.87
4398;BME280;2213;49.720;7.296;2022-07-05T12:48:36;98494.56;;;24.61;43.47
4398;BME280;2213;49.720;7.296;2022-07-05T12:51:10;98489.47;;;24.69;43.91
4398;BME280;2213;49.720;7.296;2022-07-05T12:53:50;98490.31;;;24.75;43.87
4398;BME280;2213;49.720;7.296;2022-07-05T12:56:37;98492.97;;;24.80;42.65
4398;BME280;2213;49.720;7.296;2022-07-05T12:59:58;98496.69;;;24.79;42.09
4398;BME280;2213;49.720;7.296;2022-07-05T13:02:36;98495.91;;;24.73;41.89
4398;BME280;2213;49.720;7.296;2022-07-05T13:05:18;98491.63;;;24.77;41.97
4398;BME280;2213;49.720;7.296;2022-07-05T13:07:52;98495.63;;;24.80;41.94
4398;BME280;2213;49.720;7.296;2022-07-05T13:10:26;98498.84;;;24.77;41.37
4398;BME280;2213;49.720;7.296;2022-07-05T13:13:07;98498.31;;;24.80;41.86
4398;BME280;2213;49.720;7.296;2022-07-05T13:15:37;98504.47;;;24.85;42.40
4398;BME280;2213;49.720;7.296;2022-07-05T13:18:08;98504.78;;;24.94;41.79
4398;BME280;2213;49.720;7.296;2022-07-05T13:20:40;98486.56;;;25.01;41.32
4398;BME280;2213;49.720;7.296;2022-07-05T13:23:14;98494.03;;;25.14;41.67
4398;BME280;2213;49.720;7.296;2022-07-05T13:25:45;98496.97;;;25.23;42.08
4398;BME280;2213;49.720;7.296;2022-07-05T13:28:16;98487.59;;;25.30;41.64
4398;BME280;2213;49.720;7.296;2022-07-05T13:30:45;98485.16;;;25.34;41.71
4398;BME280;2213;49.720;7.296;2022-07-05T13:33:15;98483.53;;;25.38;41.23
4398;BME280;2213;49.720;7.296;2022-07-05T13:35:46;98483.53;;;25.38;39.24
4398;BME280;2213;49.720;7.296;2022-07-05T13:38:17;98494.78;;;25.45;39.99
4398;BME280;2213;49.720;7.296;2022-07-05T13:40:47;98487.53;;;25.56;40.02
4398;BME280;2213;49.720;7.296;2022-07-05T13:43:18;98489.69;;;25.59;39.20
4398;BME280;2213;49.720;7.296;2022-07-05T13:45:47;98490.47;;;25.64;39.38